Time;durP1;ratioP1;P1;durP2;ratioP2;P2;SDS_P1;SDS_P2;PMS_P1;PMS_P2;Temp;Humidity;BMP_temperature;BMP_pressure;BME280_temperature;BME280_humidity;BME280_pressure;Samples;Min_cycle;Max_cycle;Signal;HPM_P1;HPM_P2
2021/06/03 04:02:26;;;;;;;5.13;3.20;;;16.30;90.40;;;;;;4991151;23;20612;-78
2021/06/03 04:04:52;;;;;;;3.33;2.60;;;16.30;90.30;;;;;;4931994;29;20907;-78
2021/06/03 04:07:17;;;;;;;8.33;2.70;;;16.70;88.30;;;;;;4935947;29;20259;-78
2021/06/03 04:09:43;;;;;;;3.87;3.30;;;16.90;87.50;;;;;;4936997;29;20666;-78
2021/06/03 04:12:09;;;;;;;5.13;2.93;;;17.00;86.60;;;;;;4936892;29;20199;-78
2021/06/03 04:14:35;;;;;;;8.90;3.07;;;17.00;87.40;;;;;;4936845;29;20602;-78
2021/06/03 04:17:01;;;;;;;4.93;3.07;;;;;;;;;;4954210;23;20500;-79
2021/06/03 04:19:26;;;;;;;5.73;3.00;;;17.10;86.50;;;;;;4940002;29;20191;-80
2021/06/03 04:21:52;;;;;;;4.73;3.47;;;17.10;86.90;;;;;;4941137;29;20255;-79
2021/06/03 04:24:18;;;;;;;4.23;3.40;;;17.10;86.90;;;;;;4941221;29;20640;-78
2021/06/03 04:26:44;;;;;;;3.43;2.87;;;17.30;86.60;;;;;;4953958;29;20664;-78
2021/06/03 04:29:09;;;;;;;3.90;3.10;;;17.90;84.40;;;;;;4942935;29;20471;-79
2021/06/03 04:31:35;;;;;;;10.40;3.67;;;18.40;83.60;;;;;;4943535;29;20263;-79
2021/06/03 04:34:01;;;;;;;4.93;2.57;;;18.40;82.10;;;;;;4943302;29;20176;-79
2021/06/03 04:36:26;;;;;;;8.20;3.40;;;18.70;81.00;;;;;;4943101;29;20196;-78
2021/06/03 04:38:52;;;;;;;6.47;2.97;;;18.70;82.00;;;;;;4943687;29;20200;-79
2021/06/03 04:41:17;;;;;;;5.33;2.57;;;19.00;81.90;;;;;;4944161;29;20178;-79
2021/06/03 04:43:43;;;;;;;7.97;3.00;;;19.90;78.00;;;;;;4930351;29;20180;-80
2021/06/03 04:46:10;;;;;;;2.50;2.30;;;20.70;76.40;;;;;;4920330;29;20276;-78
2021/06/03 04:48:36;;;;;;;8.40;3.27;;;21.00;76.10;;;;;;4916355;29;20187;-79
2021/06/03 04:51:02;;;;;;;7.50;3.33;;;21.00;75.30;;;;;;4916029;29;20420;-78
2021/06/03 04:53:27;;;;;;;5.57;2.70;;;21.80;73.30;;;;;;4916301;29;20188;-80
2021/06/03 04:55:53;;;;;;;3.27;2.80;;;21.70;72.70;;;;;;4915985;29;20435;-79
2021/06/03 04:58:19;;;;;;;3.90;2.70;;;21.80;73.70;;;;;;4918431;29;20278;-79
2021/06/03 05:00:44;;;;;;;3.67;2.47;;;22.20;72.20;;;;;;4922170;29;20188;-79
2021/06/03 05:03:11;;;;;;;5.77;2.77;;;20.70;75.30;;;;;;4916757;29;20703;-82
2021/06/03 05:05:37;;;;;;;5.70;3.00;;;21.00;75.20;;;;;;4916962;29;20267;-80
2021/06/03 05:08:03;;;;;;;10.50;3.40;;;22.00;73.10;;;;;;4921754;29;20423;-81
2021/06/03 05:10:30;;;;;;;4.07;2.70;;;22.40;72.20;;;;;;4921783;29;20664;-80
2021/06/03 05:12:56;;;;;;;23.77;3.73;;;21.90;73.50;;;;;;4937333;29;20450;-79
2021/06/03 05:15:23;;;;;;;4.10;3.30;;;21.90;73.60;;;;;;4936509;29;20454;-79
2021/06/03 05:17:51;;;;;;;8.60;2.70;;;21.90;73.10;;;;;;4938229;29;20478;-80
2021/06/03 05:20:18;;;;;;;11.00;3.13;;;21.80;72.80;;;;;;4938533;29;20440;-80
2021/06/03 05:22:47;;;;;;;7.97;2.60;;;22.00;71.80;;;;;;4938243;29;20419;-79
2021/06/03 05:25:15;;;;;;;6.17;4.00;;;21.70;72.40;;;;;;4939469;29;20447;-79
2021/06/03 05:27:42;;;;;;;6.37;3.23;;;21.80;72.60;;;;;;4937055;29;20415;-79
2021/06/03 05:30:10;;;;;;;4.30;2.80;;;22.40;71.70;;;;;;4937512;29;20427;-79
2021/06/03 05:32:36;;;;;;;9.90;2.97;;;22.50;71.30;;;;;;4937852;29;20478;-80
2021/06/03 05:35:04;;;;;;;3.00;2.70;;;22.50;71.10;;;;;;4936239;29;20426;-80
2021/06/03 05:37:29;;;;;;;4.77;2.47;;;23.50;69.90;;;;;;4935484;29;20230;-78
2021/06/03 05:39:55;;;;;;;7.53;2.40;;;24.00;67.80;;;;;;4933354;29;20859;-79
2021/06/03 05:42:21;;;;;;;5.40;2.53;;;24.30;67.70;;;;;;4934620;29;20195;-78
2021/06/03 05:44:47;;;;;;;4.67;2.97;;;24.50;66.20;;;;;;4937826;29;20179;-79
2021/06/03 05:47:12;;;;;;;3.43;2.67;;;25.30;64.80;;;;;;4938484;29;20227;-78
2021/06/03 05:49:38;;;;;;;2.97;2.30;;;26.00;62.10;;;;;;4941796;29;20206;-79
2021/06/03 05:52:04;;;;;;;5.07;2.60;;;25.40;63.50;;;;;;4942845;29;20167;-79
2021/06/03 05:54:31;;;;;;;5.93;2.80;;;25.20;63.90;;;;;;4944836;29;20183;-78
2021/06/03 05:56:56;;;;;;;4.27;2.30;;;25.80;62.80;;;;;;4944330;29;20206;-79
2021/06/03 05:59:22;;;;;;;4.40;3.00;;;25.00;65.10;;;;;;4941725;29;20535;-78
2021/06/03 06:01:48;;;;;;;5.63;2.53;;;;;;;;;;4940921;29;20517;-78
2021/06/03 06:05:56;;;;;;;3.90;2.77;;;26.20;63.40;;;;;;4940519;29;20179;-78
2021/06/03 06:06:59;;;;;;;6.70;2.87;;;26.00;62.40;;;;;;4937558;29;20446;-76
2021/06/03 06:09:25;;;;;;;7.80;2.90;;;26.20;62.90;;;;;;4939758;29;20434;-76
2021/06/03 06:11:51;;;;;;;3.03;2.17;;;26.50;62.00;;;;;;4943187;29;20179;-79
2021/06/03 06:14:35;;;;;;;5.50;2.60;;;26.00;62.30;;;;;;4948151;29;20194;-80
2021/06/03 06:17:00;;;;;;;3.97;2.33;;;25.70;62.80;;;;;;4950123;29;20211;-79
2021/06/03 06:19:27;;;;;;;4.63;2.70;;;;;;;;;;4945834;29;20578;-79
2021/06/03 06:21:53;;;;;;;9.83;2.77;;;27.20;61.70;;;;;;4941513;29;20522;-79
2021/06/03 06:24:19;;;;;;;2.50;2.30;;;27.30;59.60;;;;;;4929925;29;20426;-79
2021/06/03 06:26:44;;;;;;;4.87;3.00;;;26.10;62.80;;;;;;4935235;29;20195;-79
2021/06/03 06:29:10;;;;;;;13.70;2.77;;;;;;;;;;4950411;29;20175;-78
2021/06/03 06:31:36;;;;;;;7.70;2.43;;;26.50;61.90;;;;;;4949340;29;20203;-79
2021/06/03 06:34:02;;;;;;;6.47;2.70;;;26.90;62.10;;;;;;4948665;29;20781;-79
2021/06/03 06:36:27;;;;;;;9.70;2.37;;;27.50;61.50;;;;;;4948440;29;20242;-78
2021/06/03 06:38:53;;;;;;;2.80;2.20;;;26.70;61.30;;;;;;4950596;29;20206;-78
2021/06/03 06:41:18;;;;;;;4.03;2.47;;;26.10;64.00;;;;;;4952093;29;20175;-79
2021/06/03 06:43:44;;;;;;;3.80;2.50;;;25.80;64.10;;;;;;4950747;29;20235;-78
2021/06/03 06:46:10;;;;;;;3.30;2.23;;;;;;;;;;4947065;29;20203;-80
2021/06/03 06:48:36;;;;;;;3.00;2.63;;;25.80;65.30;;;;;;4949494;29;20187;-79
2021/06/03 06:51:03;;;;;;;7.43;3.10;;;26.10;63.80;;;;;;4950119;29;20187;-79
2021/06/03 06:53:28;;;;;;;4.47;1.80;;;;;;;;;;4949306;29;20914;-79
2021/06/03 06:55:55;;;;;;;10.63;3.10;;;27.60;62.00;;;;;;4949699;29;20478;-78
2021/06/03 06:58:21;;;;;;;6.67;2.67;;;;;;;;;;4949527;29;20462;-78
2021/06/03 07:00:46;;;;;;;3.73;2.10;;;28.40;59.70;;;;;;4950587;29;20421;-80
2021/06/03 07:03:12;;;;;;;4.70;2.10;;;27.60;59.20;;;;;;4950201;29;20175;-78
2021/06/03 07:05:40;;;;;;;5.83;2.50;;;27.00;60.30;;;;;;4949188;29;20198;-79
2021/06/03 07:08:06;;;;;;;5.47;2.10;;;27.20;58.60;;;;;;4951253;29;20186;-79
2021/06/03 07:10:32;;;;;;;5.30;2.00;;;;;;;;;;4950268;29;20439;-78
2021/06/03 07:12:58;;;;;;;2.53;1.90;;;;;;;;;;4949247;29;20498;-80
2021/06/03 07:15:24;;;;;;;3.87;2.07;;;27.70;58.10;;;;;;4948986;29;20520;-78
2021/06/03 07:17:49;;;;;;;4.03;1.97;;;28.10;56.20;;;;;;4949408;29;20207;-80
2021/06/03 07:20:19;;;;;;;3.50;2.20;;;27.80;57.30;;;;;;4947237;29;20187;-79
2021/06/03 07:22:51;;;;;;;4.33;1.80;;;27.40;58.20;;;;;;4946071;29;20176;-79
2021/06/03 07:25:19;;;;;;;3.63;1.80;;;26.90;57.90;;;;;;4933325;29;20411;-78
2021/06/03 07:27:45;;;;;;;7.20;2.00;;;;;;;;;;4932361;29;20444;-79
2021/06/03 07:30:13;;;;;;;4.23;1.90;;;26.90;58.10;;;;;;4951276;29;20431;-79
2021/06/03 07:32:39;;;;;;;2.90;1.90;;;;;;;;;;4952120;29;20194;-79
2021/06/03 07:35:09;;;;;;;6.37;2.23;;;27.20;59.90;;;;;;4952265;29;20530;-78
2021/06/03 07:37:36;;;;;;;3.10;2.03;;;27.40;59.70;;;;;;4952190;29;20518;-78
2021/06/03 07:40:02;;;;;;;4.03;1.80;;;;;;;;;;4947451;29;20434;-82
2021/06/03 07:42:28;;;;;;;3.93;2.00;;;;;;;;;;4949722;29;20411;-80
2021/06/03 07:44:53;;;;;;;3.70;1.90;;;;;;;;;;4953689;29;20415;-79
2021/06/03 07:47:19;;;;;;;4.40;2.13;;;;;;;;;;4949468;29;20203;-81
2021/06/03 07:49:45;;;;;;;3.07;2.40;;;27.60;57.00;;;;;;4951771;29;20171;-80
2021/06/03 07:52:11;;;;;;;3.53;1.70;;;;;;;;;;4949920;29;20183;-79
2021/06/03 07:54:36;;;;;;;3.37;2.27;;;27.20;58.50;;;;;;4951085;29;20191;-81
2021/06/03 07:57:02;;;;;;;3.93;1.70;;;27.40;57.80;;;;;;4949029;29;20191;-81
2021/06/03 07:59:29;;;;;;;4.07;1.80;;;;;;;;;;4947723;29;20217;-80
2021/06/03 08:01:55;;;;;;;4.37;2.30;;;27.00;58.90;;;;;;4950291;29;20407;-79
2021/06/03 08:04:20;;;;;;;1.87;1.63;;;27.40;58.50;;;;;;4950086;29;20458;-80
2021/06/03 08:06:47;;;;;;;1.90;1.70;;;27.40;57.50;;;;;;4949919;29;20217;-79
2021/06/03 08:09:13;;;;;;;3.47;2.13;;;27.40;60.80;;;;;;4947776;29;20191;-79
2021/06/03 08:11:39;;;;;;;2.57;1.90;;;;;;;;;;4949412;29;20930;-80
2021/06/03 08:14:05;;;;;;;2.60;1.90;;;27.60;59.10;;;;;;4947903;29;20183;-80
2021/06/03 08:16:31;;;;;;;2.53;1.90;;;;;;;;;;4947610;29;21001;-79
2021/06/03 08:18:57;;;;;;;3.30;1.83;;;;;;;;;;4948835;29;20298;-80
2021/06/03 08:21:23;;;;;;;7.80;2.13;;;27.40;57.00;;;;;;4950684;29;20186;-79
2021/06/03 08:23:49;;;;;;;2.60;1.70;;;28.10;55.90;;;;;;4949428;29;20185;-79
2021/06/03 08:26:15;;;;;;;4.53;1.80;;;28.00;56.40;;;;;;4946626;29;20466;-79
2021/06/03 08:28:41;;;;;;;3.10;2.10;;;;;;;;;;4947723;29;20191;-79
2021/06/03 08:31:07;;;;;;;2.73;2.00;;;;;;;;;;4949945;29;20511;-79
2021/06/03 08:33:33;;;;;;;3.93;2.00;;;;;;;;;;4948379;29;20187;-80
2021/06/03 08:35:59;;;;;;;3.40;1.70;;;27.70;59.50;;;;;;4950157;29;20478;-79
2021/06/03 08:38:25;;;;;;;3.03;2.13;;;28.10;56.90;;;;;;4948899;29;20206;-79
2021/06/03 08:40:57;;;;;;;5.73;2.13;;;28.90;56.40;;;;;;4946976;29;20415;-79
2021/06/03 08:43:26;;;;;;;5.73;1.80;;;28.30;55.80;;;;;;4943487;29;20427;-79
2021/06/03 08:45:52;;;;;;;1.97;1.60;;;;;;;;;;4944123;29;20529;-79
2021/06/03 08:48:18;;;;;;;2.57;1.87;;;;;;;;;;4941720;29;20454;-78
2021/06/03 08:50:53;;;;;;;2.07;1.87;;;27.90;56.20;;;;;;4943338;29;20238;-77
2021/06/03 08:53:19;;;;;;;5.17;1.67;;;27.90;55.00;;;;;;4939504;29;20422;-78
2021/06/03 08:58:31;;;;;;;3.73;1.70;;;28.00;54.80;;;;;;4944118;29;20537;-77
2021/06/03 09:00:58;;;;;;;4.40;1.90;;;27.70;55.50;;;;;;4939719;29;20454;-78
2021/06/03 09:03:26;;;;;;;3.23;2.07;;;27.70;55.80;;;;;;4940008;29;20648;-77
2021/06/03 09:05:51;;;;;;;5.60;2.50;;;27.80;57.80;;;;;;4938342;29;20451;-77
2021/06/03 09:08:56;;;;;;;4.10;2.00;;;27.90;58.20;;;;;;4937455;29;21019;-77
2021/06/03 09:11:24;;;;;;;3.87;1.73;;;27.30;56.20;;;;;;4884141;29;20220;-77
2021/06/03 09:14:03;;;;;;;4.60;2.03;;;27.50;60.50;;;;;;4928511;29;20427;-77
2021/06/03 09:16:32;;;;;;;2.47;1.70;;;27.80;55.50;;;;;;4939785;29;20482;-77
2021/06/03 09:19:05;;;;;;;2.43;1.70;;;27.20;55.60;;;;;;4938621;29;20473;-77
2021/06/03 09:21:36;;;;;;;13.53;1.70;;;26.90;58.40;;;;;;4939468;29;20573;-77
2021/06/03 09:24:07;;;;;;;3.30;2.07;;;26.80;57.60;;;;;;4937996;29;20904;-77
2021/06/03 09:26:45;;;;;;;6.43;2.20;;;27.30;57.40;;;;;;4938984;29;20473;-77
2021/06/03 09:29:12;;;;;;;3.00;1.70;;;26.70;55.40;;;;;;4935430;29;20432;-77
2021/06/03 09:31:38;;;;;;;6.20;1.83;;;26.60;55.30;;;;;;4937557;29;20455;-77
2021/06/03 09:34:08;;;;;;;3.93;1.77;;;26.70;58.70;;;;;;4941553;29;20422;-77
2021/06/03 09:36:57;;;;;;;1.93;1.60;;;27.50;57.40;;;;;;4940791;29;20844;-77
2021/06/03 09:39:34;;;;;;;3.10;1.80;;;27.50;57.10;;;;;;4943782;29;20447;-77
2021/06/03 09:42:03;;;;;;;2.00;1.80;;;27.30;54.90;;;;;;4944071;29;20919;-77
2021/06/03 09:44:40;;;;;;;2.47;1.90;;;26.90;58.90;;;;;;4943562;29;20423;-77
2021/06/03 09:47:11;;;;;;;1.90;1.80;;;28.10;57.40;;;;;;4942845;29;20456;-77
2021/06/03 09:49:39;;;;;;;2.90;2.00;;;28.20;54.20;;;;;;4943316;29;20481;-77
2021/06/03 09:52:13;;;;;;;2.67;1.83;;;27.70;55.90;;;;;;4942105;29;20433;-77
2021/06/03 09:54:41;;;;;;;4.80;2.00;;;27.60;56.40;;;;;;4942309;29;20771;-77
2021/06/03 09:57:11;;;;;;;4.57;2.00;;;27.40;54.90;;;;;;4943163;29;20464;-77
2021/06/03 09:59:45;;;;;;;3.10;1.73;;;27.40;55.60;;;;;;4944959;29;20427;-77
2021/06/03 10:02:20;;;;;;;3.90;1.70;;;27.20;57.00;;;;;;4943899;29;20934;-77
2021/06/03 10:04:47;;;;;;;2.77;1.93;;;27.40;58.60;;;;;;4943844;29;20406;-77
2021/06/03 10:07:27;;;;;;;2.23;1.77;;;28.30;53.40;;;;;;4942986;29;20837;-77
2021/06/03 10:09:53;;;;;;;1.93;1.50;;;;;;;;;;4940167;29;20417;-77
2021/06/03 10:12:25;;;;;;;3.30;2.17;;;27.20;57.00;;;;;;4932406;29;20426;-77
2021/06/03 10:14:55;;;;;;;8.00;1.97;;;27.30;57.30;;;;;;4942532;29;20415;-78
2021/06/03 10:17:27;;;;;;;3.20;1.87;;;27.60;58.20;;;;;;4941830;29;20452;-78
2021/06/03 10:19:55;;;;;;;4.10;2.30;;;28.10;55.70;;;;;;4943591;29;20454;-78
2021/06/03 10:22:27;;;;;;;3.00;1.70;;;27.80;54.70;;;;;;4942382;29;20422;-78
2021/06/03 10:25:03;;;;;;;2.50;2.10;;;27.80;55.70;;;;;;4943020;29;20522;-78
2021/06/03 10:27:54;;;;;;;4.87;1.97;;;28.30;56.20;;;;;;4943931;29;20429;-78
2021/06/03 10:30:23;;;;;;;3.93;1.77;;;28.20;55.60;;;;;;4958973;29;20725;-78
2021/06/03 10:32:50;;;;;;;5.60;2.13;;;28.90;55.10;;;;;;4956818;28;20424;-78
2021/06/03 10:35:19;;;;;;;2.97;2.07;;;29.60;54.90;;;;;;4943040;29;20431;-79
2021/06/03 10:37:45;;;;;;;3.93;1.87;;;29.30;53.00;;;;;;4945487;29;20467;-79
2021/06/03 10:40:24;;;;;;;6.13;1.80;;;29.10;56.40;;;;;;4947164;29;20427;-79
2021/06/03 10:42:51;;;;;;;3.97;2.03;;;28.50;53.20;;;;;;4947554;29;20882;-79
2021/06/03 10:45:20;;;;;;;3.20;1.90;;;28.30;56.80;;;;;;4947012;29;20494;-79
2021/06/03 10:47:46;;;;;;;5.63;2.40;;;28.70;54.90;;;;;;4947244;29;20826;-79
2021/06/03 10:50:17;;;;;;;2.53;2.17;;;29.20;53.70;;;;;;4949821;29;20423;-79
2021/06/03 10:52:43;;;;;;;4.30;1.70;;;28.90;55.50;;;;;;4951617;29;20179;-79
2021/06/03 10:55:10;;;;;;;3.30;1.80;;;28.00;54.30;;;;;;4951157;29;20431;-77
2021/06/03 10:57:45;;;;;;;2.40;1.83;;;27.30;55.70;;;;;;4939624;29;20454;-79
2021/06/03 11:00:28;;;;;;;3.90;1.93;;;27.40;56.30;;;;;;4938019;29;20433;-78
2021/06/03 11:03:00;;;;;;;3.40;1.90;;;27.20;54.90;;;;;;4938417;29;20426;-79
2021/06/03 11:05:33;;;;;;;3.53;2.47;;;26.40;55.80;;;;;;4937435;29;20442;-78
2021/06/03 11:08:25;;;;;;;2.90;2.07;;;25.70;57.60;;;;;;4937541;29;20438;-79
2021/06/03 11:10:52;;;;;;;2.03;1.70;;;26.50;64.60;;;;;;4951579;28;20485;-78
2021/06/03 11:13:19;;;;;;;3.70;1.53;;;27.10;57.40;;;;;;4937066;29;20784;-79
2021/06/03 11:16:06;;;;;;;1.97;1.57;;;27.70;56.00;;;;;;4937769;29;20477;-79
2021/06/03 11:18:45;;;;;;;4.87;2.13;;;27.50;55.90;;;;;;4936598;29;20478;-79
2021/06/03 11:21:33;;;;;;;4.00;1.87;;;27.40;56.00;;;;;;4937918;29;20482;-79
2021/06/03 11:23:59;;;;;;;6.43;2.50;;;27.60;55.20;;;;;;4938293;29;20848;-79
2021/06/03 11:26:37;;;;;;;3.40;1.93;;;27.90;62.60;;;;;;4937330;29;20454;-79
2021/06/03 11:29:25;;;;;;;5.80;1.70;;;28.30;54.40;;;;;;4937928;29;20422;-79
2021/06/03 11:32:15;;;;;;;1.83;1.73;;;28.40;54.00;;;;;;4936820;29;20419;-79
2021/06/03 11:34:40;;;;;;;5.10;1.93;;;28.10;53.20;;;;;;4936396;29;20433;-80
2021/06/03 11:37:06;;;;;;;7.10;2.40;;;28.20;55.90;;;;;;4937623;29;20446;-79
2021/06/03 11:39:31;;;;;;;3.07;2.40;;;28.10;55.20;;;;;;4937927;29;20698;-78
2021/06/03 11:42:19;;;;;;;5.53;1.90;;;27.90;60.30;;;;;;4936719;29;20179;-79
2021/06/03 11:45:03;;;;;;;2.50;2.00;;;28.10;58.50;;;;;;4936549;29;20260;-79
2021/06/03 11:47:38;;;;;;;7.27;1.90;;;28.20;55.30;;;;;;4935774;29;20411;-79
2021/06/03 11:50:29;;;;;;;3.67;2.10;;;28.40;54.50;;;;;;4938156;29;20406;-79
2021/06/03 11:53:04;;;;;;;6.77;2.10;;;27.90;56.50;;;;;;4937671;29;20506;-79
2021/06/03 11:55:38;;;;;;;2.37;1.73;;;27.30;56.70;;;;;;4936677;29;21030;-79
2021/06/03 11:58:16;;;;;;;2.40;2.10;;;27.40;57.00;;;;;;4936700;29;20488;-79
2021/06/03 12:01:07;;;;;;;4.23;2.23;;;27.20;54.90;;;;;;4934973;29;20426;-79
2021/06/03 12:03:37;;;;;;;2.17;2.00;;;;;;;;;;4937248;29;20423;-78
2021/06/03 12:06:15;;;;;;;7.00;2.23;;;27.00;55.90;;;;;;4935721;29;20429;-78
2021/06/03 12:08:50;;;;;;;2.17;1.93;;;26.80;57.50;;;;;;4935520;29;20438;-78
2021/06/03 12:11:19;;;;;;;2.97;2.30;;;26.80;57.40;;;;;;4936080;29;20430;-78
2021/06/03 12:13:45;;;;;;;2.30;1.80;;;26.80;57.20;;;;;;4934715;29;20415;-78
2021/06/03 12:16:11;;;;;;;7.20;2.40;;;27.10;59.60;;;;;;4936017;29;20470;-78
2021/06/03 12:18:46;;;;;;;7.33;2.30;;;27.60;57.50;;;;;;4936487;29;20466;-78
2021/06/03 12:21:13;;;;;;;3.10;1.97;;;27.90;55.00;;;;;;4936618;29;20414;-77
2021/06/03 12:23:51;;;;;;;8.53;2.53;;;28.00;53.20;;;;;;4937373;29;20426;-78
2021/06/03 12:26:23;;;;;;;4.70;1.90;;;27.80;55.60;;;;;;4936851;29;20963;-78
2021/06/03 12:28:50;;;;;;;10.90;2.27;;;28.20;58.00;;;;;;4937601;29;20422;-78
2021/06/03 12:31:33;;;;;;;7.60;2.30;;;28.20;58.10;;;;;;4935505;29;20939;-79
2021/06/03 12:33:59;;;;;;;3.03;2.07;;;;;;;;;;4935949;29;20434;-78
2021/06/03 12:36:29;;;;;;;9.70;1.80;;;27.90;57.30;;;;;;4936164;29;20477;-78
2021/06/03 12:38:56;;;;;;;2.63;1.90;;;27.60;56.70;;;;;;4935996;29;20295;-79
2021/06/03 12:41:33;;;;;;;5.93;1.83;;;27.90;57.20;;;;;;4936212;29;20423;-78
2021/06/03 12:44:09;;;;;;;9.93;2.10;;;28.20;57.60;;;;;;4932932;29;20967;-78
2021/06/03 12:46:43;;;;;;;2.60;1.73;;;28.50;55.70;;;;;;4919538;29;20447;-79
2021/06/03 12:49:26;;;;;;;4.13;2.23;;;27.90;54.80;;;;;;4917532;29;20416;-78
2021/06/03 12:52:04;;;;;;;3.43;2.10;;;27.50;56.20;;;;;;4927132;29;20426;-79
2021/06/03 12:54:41;;;;;;;8.03;1.77;;;27.80;58.20;;;;;;4936806;29;20457;-78
2021/06/03 12:57:16;;;;;;;2.77;1.70;;;28.20;57.30;;;;;;4934747;29;20450;-78
2021/06/03 12:59:50;;;;;;;7.73;2.47;;;27.90;58.50;;;;;;4937484;29;20462;-78
2021/06/03 13:02:17;;;;;;;3.37;2.23;;;28.00;58.50;;;;;;4936139;29;20423;-78
2021/06/03 13:04:46;;;;;;;4.03;2.07;;;28.20;59.80;;;;;;4937447;29;20423;-78
2021/06/03 13:07:16;;;;;;;9.93;2.00;;;28.60;59.90;;;;;;4936500;29;20439;-78
2021/06/03 13:09:53;;;;;;;6.57;2.13;;;28.70;59.10;;;;;;4936315;29;20423;-78
2021/06/03 13:12:19;;;;;;;4.83;2.27;;;;;;;;;;4935081;29;20422;-78
2021/06/03 13:14:46;;;;;;;3.77;1.83;;;28.10;57.00;;;;;;4935394;29;20922;-78
2021/06/03 13:17:15;;;;;;;2.30;2.10;;;28.40;56.90;;;;;;4937713;29;20206;-79
2021/06/03 13:19:43;;;;;;;4.93;1.80;;;28.10;56.20;;;;;;4936665;29;20473;-78
2021/06/03 13:22:10;;;;;;;12.53;2.23;;;28.30;56.70;;;;;;4965819;23;20551;-73
2021/06/03 13:24:45;;;;;;;2.00;1.80;;;27.90;55.70;;;;;;4897013;29;20412;-74
2021/06/03 13:27:11;;;;;;;5.43;2.00;;;;;;;;;;4896862;29;20396;-74
2021/06/03 13:29:53;;;;;;;2.20;2.00;;;27.80;57.10;;;;;;4897522;29;20412;-74
2021/06/03 13:32:29;;;;;;;2.27;1.87;;;27.80;58.80;;;;;;4900764;29;20203;-74
2021/06/03 13:35:03;;;;;;;2.27;2.00;;;27.90;56.70;;;;;;4916260;29;20432;-74
2021/06/03 13:37:34;;;;;;;6.83;2.10;;;27.50;56.70;;;;;;4916141;29;20430;-75
2021/06/03 13:40:07;;;;;;;4.07;1.67;;;27.40;57.30;;;;;;4915802;29;20777;-74
2021/06/03 13:42:38;;;;;;;6.17;3.07;;;27.10;58.90;;;;;;4916157;29;20403;-75
2021/06/03 13:45:06;;;;;;;4.00;2.40;;;26.90;58.60;;;;;;4915927;29;20408;-75
2021/06/03 13:47:39;;;;;;;5.23;2.40;;;26.80;60.20;;;;;;4915264;29;20430;-74
2021/06/03 13:50:27;;;;;;;2.60;1.80;;;27.40;58.70;;;;;;4915859;29;20408;-74
2021/06/03 13:53:13;;;;;;;4.00;2.10;;;28.10;56.70;;;;;;4914389;29;20451;-74
2021/06/03 13:55:51;;;;;;;2.03;1.67;;;27.80;55.20;;;;;;4914443;29;20419;-74
2021/06/03 13:58:39;;;;;;;4.80;1.87;;;27.80;55.50;;;;;;4916909;29;20443;-74
2021/06/03 14:01:11;;;;;;;2.27;2.07;;;27.90;56.60;;;;;;4916554;29;20490;-74
2021/06/03 14:03:46;;;;;;;5.53;2.03;;;28.00;57.70;;;;;;4916485;29;20412;-74
2021/06/03 14:06:13;;;;;;;2.57;2.00;;;27.70;56.70;;;;;;4916008;29;20494;-74
2021/06/03 14:08:42;;;;;;;3.73;2.10;;;27.90;56.20;;;;;;4916849;29;20407;-73
2021/06/03 14:11:22;;;;;;;5.13;2.13;;;28.10;57.30;;;;;;4916604;29;20439;-74
2021/06/03 14:13:55;;;;;;;2.80;2.17;;;28.30;54.90;;;;;;4916027;29;21063;-74
2021/06/03 14:16:37;;;;;;;2.30;2.10;;;28.20;56.40;;;;;;4915057;29;20821;-74
2021/06/03 14:19:11;;;;;;;2.73;2.43;;;28.00;57.00;;;;;;4914697;29;20964;-74
2021/06/03 14:21:46;;;;;;;4.23;2.10;;;27.80;58.70;;;;;;4915783;29;20463;-75
2021/06/03 14:24:43;;;;;;;3.80;1.80;;;27.80;56.20;;;;;;4916593;29;20423;-75
2021/06/03 14:27:17;;;;;;;4.00;2.33;;;27.70;57.00;;;;;;4913759;29;20427;-75
2021/06/03 14:29:59;;;;;;;4.03;1.90;;;27.80;56.10;;;;;;4918782;29;20410;-75
2021/06/03 14:32:39;;;;;;;2.23;2.03;;;27.90;57.60;;;;;;4918821;29;20432;-75
2021/06/03 14:35:11;;;;;;;11.03;2.50;;;27.40;59.10;;;;;;4919292;29;20436;-75
2021/06/03 14:37:37;;;;;;;2.27;1.83;;;;;;;;;;4918186;29;20419;-75
2021/06/03 14:40:05;;;;;;;8.00;2.37;;;27.40;57.50;;;;;;4918920;29;20487;-75
2021/06/03 14:42:36;;;;;;;2.90;1.90;;;27.00;58.00;;;;;;4918944;29;20908;-75
2021/06/03 14:45:13;;;;;;;3.47;2.00;;;27.20;60.10;;;;;;4918869;29;20408;-74
2021/06/03 14:47:39;;;;;;;4.30;2.47;;;27.20;58.80;;;;;;4918382;29;20438;-75
2021/06/03 14:50:06;;;;;;;2.90;2.37;;;27.30;59.40;;;;;;4918670;29;20412;-75
2021/06/03 14:52:34;;;;;;;2.33;2.17;;;27.00;58.40;;;;;;4918614;29;20412;-75
2021/06/03 14:55:02;;;;;;;3.67;2.20;;;27.30;58.90;;;;;;4919534;29;20471;-75
2021/06/03 14:57:31;;;;;;;3.80;2.20;;;27.70;58.10;;;;;;4919145;29;20823;-74
2021/06/03 14:59:58;;;;;;;3.47;2.10;;;27.30;58.70;;;;;;4919410;29;20443;-74
2021/06/03 15:02:24;;;;;;;7.17;2.30;;;27.40;59.10;;;;;;4924829;29;20463;-73
2021/06/03 15:04:50;;;;;;;3.30;2.50;;;27.60;58.10;;;;;;4941764;29;20444;-73
2021/06/03 15:07:16;;;;;;;7.30;2.20;;;;;;;;;;4928089;29;20664;-73
2021/06/03 15:09:43;;;;;;;6.87;2.43;;;27.90;56.70;;;;;;4920206;29;20404;-74
2021/06/03 15:12:10;;;;;;;6.53;2.33;;;27.90;58.00;;;;;;4919868;29;20431;-72
2021/06/03 15:14:36;;;;;;;5.50;2.43;;;;;;;;;;4918631;29;20400;-72
2021/06/03 15:17:02;;;;;;;9.03;2.97;;;27.80;57.60;;;;;;4918696;29;20384;-72
2021/06/03 15:19:27;;;;;;;3.23;2.20;;;26.80;60.80;;;;;;4919046;29;20451;-72
2021/06/03 15:21:55;;;;;;;3.20;2.83;;;26.40;62.60;;;;;;4927501;29;20473;-72
2021/06/03 15:24:20;;;;;;;8.00;2.60;;;25.80;63.30;;;;;;4936631;29;20651;-71
2021/06/03 15:26:46;;;;;;;2.90;2.60;;;26.00;64.40;;;;;;4937903;29;20477;-72
2021/06/03 15:29:11;;;;;;;3.13;2.40;;;26.50;63.40;;;;;;4937874;29;20274;-72
2021/06/03 15:31:37;;;;;;;2.70;2.30;;;26.30;62.10;;;;;;4937436;29;20194;-73
2021/06/03 15:34:03;;;;;;;3.50;3.10;;;;;;;;;;4938985;29;20183;-74
2021/06/03 15:36:28;;;;;;;5.33;2.90;;;26.30;62.60;;;;;;4937698;29;20230;-75
2021/06/03 15:38:55;;;;;;;4.77;2.43;;;26.40;63.10;;;;;;4940230;29;20207;-74
2021/06/03 15:41:22;;;;;;;4.37;3.07;;;26.60;63.90;;;;;;4940152;29;20289;-73
2021/06/03 15:43:47;;;;;;;2.63;2.30;;;26.60;62.30;;;;;;4941251;29;20457;-73
2021/06/03 15:46:13;;;;;;;3.37;2.50;;;26.80;61.80;;;;;;4941849;29;20498;-73
2021/06/03 15:48:38;;;;;;;5.17;2.67;;;26.30;62.10;;;;;;4939182;29;20191;-75
2021/06/03 15:51:04;;;;;;;3.00;2.67;;;26.30;64.50;;;;;;4943703;29;20687;-74
2021/06/03 15:53:29;;;;;;;3.33;2.10;;;26.30;63.20;;;;;;4942974;29;20658;-74
2021/06/03 15:55:57;;;;;;;3.63;2.37;;;26.10;63.90;;;;;;4941280;29;20175;-75
2021/06/03 15:58:22;;;;;;;5.13;2.50;;;26.00;64.00;;;;;;4939827;29;20191;-75
2021/06/03 16:00:48;;;;;;;3.33;2.87;;;26.20;64.60;;;;;;4940280;29;20438;-75
2021/06/03 16:03:14;;;;;;;11.67;2.60;;;26.50;63.50;;;;;;4940817;29;20249;-75
2021/06/03 16:05:40;;;;;;;4.73;2.30;;;26.30;62.80;;;;;;4938909;29;20539;-75
2021/06/03 16:08:05;;;;;;;14.40;2.73;;;25.70;63.40;;;;;;4932033;29;20723;-74
2021/06/03 16:10:31;;;;;;;5.90;2.60;;;25.30;65.20;;;;;;4936960;29;20200;-75
2021/06/03 16:13:01;;;;;;;3.27;2.70;;;24.90;67.50;;;;;;4923228;29;20266;-76
2021/06/03 16:15:28;;;;;;;4.37;2.50;;;24.90;66.70;;;;;;4937614;29;20172;-76
2021/06/03 16:17:58;;;;;;;7.73;2.23;;;24.70;67.00;;;;;;4936658;29;21035;-75
2021/06/03 16:20:24;;;;;;;2.93;2.60;;;24.50;66.90;;;;;;4936716;29;20566;-76
2021/06/03 16:22:50;;;;;;;9.10;3.00;;;24.30;66.80;;;;;;4936973;29;20463;-75
2021/06/03 16:25:16;;;;;;;7.47;3.03;;;24.20;67.20;;;;;;4936490;29;20167;-76
2021/06/03 16:27:43;;;;;;;5.63;3.00;;;24.20;67.40;;;;;;4936125;29;20176;-77
2021/06/03 16:30:18;;;;;;;3.63;2.30;;;24.30;68.40;;;;;;4936012;29;20419;-76
2021/06/03 16:32:44;;;;;;;8.33;2.43;;;24.20;68.50;;;;;;4936066;29;20446;-74
2021/06/03 16:35:10;;;;;;;5.03;3.00;;;23.90;68.50;;;;;;4925481;29;20964;-74
2021/06/03 16:37:36;;;;;;;5.67;2.63;;;24.00;68.50;;;;;;4919253;29;20180;-75
2021/06/03 16:40:05;;;;;;;6.00;3.07;;;24.10;68.60;;;;;;4924034;29;20194;-74
2021/06/03 16:42:31;;;;;;;4.93;2.50;;;;;;;;;;4928335;29;20175;-74
2021/06/03 16:44:56;;;;;;;3.57;2.70;;;24.50;68.60;;;;;;4937764;29;20908;-74
2021/06/03 16:47:22;;;;;;;4.20;2.80;;;;;;;;;;4923270;29;20180;-74
2021/06/03 16:49:48;;;;;;;4.10;2.30;;;24.10;68.00;;;;;;4915580;29;20559;-74
2021/06/03 16:52:13;;;;;;;5.90;2.60;;;24.00;69.00;;;;;;4929393;29;20243;-73
2021/06/03 16:54:39;;;;;;;6.20;2.60;;;24.00;69.30;;;;;;4927112;29;20235;-76
2021/06/03 16:57:05;;;;;;;2.73;2.43;;;24.10;69.40;;;;;;4925173;29;20186;-74
2021/06/03 16:59:31;;;;;;;6.53;2.43;;;24.30;68.00;;;;;;4928059;29;20210;-74
2021/06/03 17:01:56;;;;;;;5.00;2.80;;;24.40;68.30;;;;;;4924620;29;20442;-74
2021/06/03 17:04:22;;;;;;;6.90;2.40;;;24.60;67.70;;;;;;4923137;29;20200;-74
2021/06/03 17:06:47;;;;;;;4.53;2.30;;;24.50;66.40;;;;;;4932187;29;20183;-74
2021/06/03 17:09:13;;;;;;;6.33;2.67;;;24.40;67.50;;;;;;4935060;29;20187;-74
2021/06/03 17:11:39;;;;;;;4.93;2.50;;;24.40;68.40;;;;;;4935088;29;20243;-75
2021/06/03 17:14:06;;;;;;;4.03;2.20;;;24.30;67.70;;;;;;4931518;29;20196;-74